Time;durP1;ratioP1;P1;durP2;ratioP2;P2;SDS_P1;SDS_P2;PMS_P1;PMS_P2;Temp;Humidity;BMP_temperature;BMP_pressure;BME280_temperature;BME280_humidity;BME280_pressure;Samples;Min_cycle;Max_cycle;Signal;HPM_P1;HPM_P2
2023/12/14 00:00:45;;;;;;;;;;;;;;;5.93;100.00;100766.50;5050660;28;20321;-78
2023/12/14 00:03:12;;;;;;;;;;;;;;;5.90;100.00;100767.34;5044364;28;20368;-78
2023/12/14 00:05:37;;;;;;;;;;;;;;;5.88;100.00;100780.34;5040524;28;19921;-78
2023/12/14 00:08:02;;;;;;;;;;;;;;;5.87;100.00;100781.19;5028730;28;19928;-78
2023/12/14 00:10:28;;;;;;;;;;;;;;;5.85;100.00;100780.31;5053129;28;20017;-78
2023/12/14 00:12:55;;;;;;;;;;;;;;;5.85;100.00;100800.28;5017069;28;19921;-78
2023/12/14 00:15:20;;;;;;;;;;;;;;;5.84;100.00;100796.78;5024337;28;20297;-78
2023/12/14 00:17:45;;;;;;;;;;;;;;;5.83;100.00;100805.47;5031721;28;19921;-78
2023/12/14 00:20:11;;;;;;;;;;;;;;;5.82;100.00;100819.31;5024111;28;20004;-78
2023/12/14 00:22:37;;;;;;;;;;;;;;;5.81;100.00;100827.09;5028680;28;20305;-78
2023/12/14 00:25:03;;;;;;;;;;;;;;;5.83;100.00;100839.28;5033389;28;19928;-79
2023/12/14 00:27:28;;;;;;;;;;;;;;;5.81;100.00;100837.50;5033654;28;19921;-79
2023/12/14 00:29:53;;;;;;;;;;;;;;;5.77;100.00;100836.59;5037608;28;20344;-78
2023/12/14 00:32:19;;;;;;;;;;;;;;;5.79;100.00;100842.69;5024503;28;19947;-79
2023/12/14 00:34:44;;;;;;;;;;;;;;;5.72;100.00;100852.16;5054217;28;19916;-79
2023/12/14 00:37:09;;;;;;;;;;;;;;;5.65;100.00;100865.97;5022451;28;19936;-79
2023/12/14 00:39:35;;;;;;;;;;;;;;;5.62;100.00;100867.69;5035098;28;19932;-78
2023/12/14 00:42:00;;;;;;;;;;;;;;;5.58;100.00;100863.31;5030278;28;20298;-79
2023/12/14 00:44:25;;;;;;;;;;;;;;;5.51;100.00;100867.56;5039550;28;19968;-78
2023/12/14 00:46:50;;;;;;;;;;;;;;;5.53;100.00;100886.66;5033688;28;19925;-79
2023/12/14 00:49:18;;;;;;;;;;;;;;;5.47;100.00;100887.44;5037301;28;20378;-78
2023/12/14 00:51:43;;;;;;;;;;;;;;;5.44;100.00;100892.63;5022807;28;19956;-79
2023/12/14 00:54:11;;;;;;;;;;;;;;;5.44;100.00;100899.56;5036933;28;20421;-78
2023/12/14 00:56:36;;;;;;;;;;;;;;;5.41;100.00;100896.94;5045021;28;19994;-79
2023/12/14 00:59:01;;;;;;;;;;;;;;;5.38;100.00;100902.97;5035246;28;20377;-79
2023/12/14 01:01:26;;;;;;;;;;;;;;;5.36;100.00;100909.91;5026066;28;19921;-78
2023/12/14 01:03:52;;;;;;;;;;;;;;;5.32;100.00;100908.13;5033248;28;20400;-78
2023/12/14 01:06:19;;;;;;;;;;;;;;;5.30;100.00;100912.41;5046683;28;20370;-79
2023/12/14 01:08:46;;;;;;;;;;;;;;;5.28;100.00;100909.78;5041704;28;20451;-79
2023/12/14 01:11:11;;;;;;;;;;;;;;;5.29;100.00;100913.28;5025819;28;19936;-78
2023/12/14 01:13:36;;;;;;;;;;;;;;;5.25;100.00;100919.28;5033039;28;20347;-78
2023/12/14 01:16:02;;;;;;;;;;;;;;;5.24;100.00;100920.13;5036302;28;19925;-78
2023/12/14 01:18:27;;;;;;;;;;;;;;;5.25;100.00;100916.69;5030266;28;19998;-79
2023/12/14 01:20:52;;;;;;;;;;;;;;;5.25;100.00;100914.09;5034531;28;19924;-79
2023/12/14 01:23:18;;;;;;;;;;;;;;;5.25;100.00;100921.88;5031992;28;20263;-76
2023/12/14 01:25:43;;;;;;;;;;;;;;;5.24;100.00;100930.53;5064644;28;19928;-79
2023/12/14 01:28:09;;;;;;;;;;;;;;;5.18;100.00;100942.59;5049752;28;19928;-76
2023/12/14 01:30:34;;;;;;;;;;;;;;;5.15;100.00;100950.34;5068565;28;19995;-77
2023/12/14 01:33:00;;;;;;;;;;;;;;;5.14;100.00;100955.53;5032697;28;19984;-77
2023/12/14 01:35:26;;;;;;;;;;;;;;;5.23;100.00;100959.94;5032083;28;19925;-79
2023/12/14 01:37:51;;;;;;;;;;;;;;;5.26;100.00;100968.66;5037797;28;20385;-78
2023/12/14 01:40:18;;;;;;;;;;;;;;;5.12;100.00;100976.28;5033970;28;19929;-78
2023/12/14 01:42:45;;;;;;;;;;;;;;;5.14;100.00;100989.28;5052838;28;19924;-79
2023/12/14 01:45:13;;;;;;;;;;;;;;;5.13;100.00;100984.94;5029838;28;19955;-78
2023/12/14 01:47:38;;;;;;;;;;;;;;;5.08;100.00;100987.47;5034005;28;19921;-78
2023/12/14 01:50:04;;;;;;;;;;;;;;;5.04;100.00;100985.69;5035724;28;20287;-78
2023/12/14 01:52:29;;;;;;;;;;;;;;;5.02;100.00;100990.00;5032857;28;19969;-78
2023/12/14 01:54:55;;;;;;;;;;;;;;;5.02;100.00;101000.41;5052654;28;19932;-77
2023/12/14 01:57:20;;;;;;;;;;;;;;;5.00;100.00;101007.31;5032692;28;19929;-78
2023/12/14 01:59:46;;;;;;;;;;;;;;;5.02;100.00;101021.19;5032412;28;19921;-77
2023/12/14 02:02:11;;;;;;;;;;;;;;;4.96;100.00;101018.50;5035498;28;20362;-76
2023/12/14 02:04:37;;;;;;;;;;;;;;;4.97;100.00;101022.81;5024930;28;20298;-77
2023/12/14 02:07:03;;;;;;;;;;;;;;;5.00;100.00;101033.28;5032689;28;19921;-77
2023/12/14 02:09:28;;;;;;;;;;;;;;;4.91;100.00;101027.94;5049531;28;20419;-78
2023/12/14 02:11:53;;;;;;;;;;;;;;;4.88;100.00;101033.97;5029628;28;20028;-77
2023/12/14 02:14:21;;;;;;;;;;;;;;;4.86;100.00;101033.06;5044106;28;19925;-77
2023/12/14 02:16:46;;;;;;;;;;;;;;;4.86;100.00;101039.13;5050660;28;19917;-78
2023/12/14 02:19:12;;;;;;;;;;;;;;;4.81;100.00;101035.63;5044809;28;19925;-78
2023/12/14 02:21:37;;;;;;;;;;;;;;;4.81;100.00;101050.28;5037865;28;19928;-77
2023/12/14 02:24:03;;;;;;;;;;;;;;;4.82;100.00;101046.84;5046106;28;19928;-77
2023/12/14 02:26:29;;;;;;;;;;;;;;;4.78;100.00;101051.13;5026169;28;19952;-76
2023/12/14 02:28:54;;;;;;;;;;;;;;;4.79;100.00;101068.44;5032032;28;19929;-76
2023/12/14 02:31:20;;;;;;;;;;;;;;;4.77;100.00;101070.16;5046362;28;19933;-76
2023/12/14 02:33:45;;;;;;;;;;;;;;;4.79;100.00;101081.44;5048647;28;19952;-76
2023/12/14 02:36:13;;;;;;;;;;;;;;;4.78;100.00;101081.41;5031704;28;19928;-78
2023/12/14 02:38:38;;;;;;;;;;;;;;;4.74;100.00;101083.09;5031391;28;19925;-77
2023/12/14 02:41:03;;;;;;;;;;;;;;;4.73;100.00;101070.97;5030541;28;20295;-79
2023/12/14 02:43:30;;;;;;;;;;;;;;;4.74;100.00;101085.69;5038545;28;19924;-76
2023/12/14 02:46:01;;;;;;;;;;;;;;;4.70;100.00;101083.91;5042454;28;19932;-78
2023/12/14 02:48:27;;;;;;;;;;;;;;;4.64;100.00;101094.16;5033496;28;20405;-77
2023/12/14 02:50:52;;;;;;;;;;;;;;;4.65;100.00;101095.91;5042031;28;19960;-75
2023/12/14 02:53:18;;;;;;;;;;;;;;;4.61;100.00;101099.31;5046209;28;19921;-75
2023/12/14 02:55:46;;;;;;;;;;;;;;;4.61;100.00;101110.56;5034447;28;20007;-78
2023/12/14 02:58:12;;;;;;;;;;;;;;;4.55;100.00;101105.25;5017913;28;19991;-79
2023/12/14 03:00:37;;;;;;;;;;;;;;;4.60;100.00;101110.56;5033843;28;19964;-76
2023/12/14 03:03:02;;;;;;;;;;;;;;;4.57;100.00;101120.84;5027387;28;20511;-76
2023/12/14 03:05:28;;;;;;;;;;;;;;;4.50;100.00;101118.16;5035085;28;19922;-75
2023/12/14 03:07:53;;;;;;;;;;;;;;;4.50;100.00;101128.53;5017564;28;19924;-75
2023/12/14 03:10:18;;;;;;;;;;;;;;;4.50;100.00;101127.69;5039751;28;19925;-78
2023/12/14 03:12:45;;;;;;;;;;;;;;;4.54;100.00;101134.69;5033763;28;19924;-78
2023/12/14 03:15:10;;;;;;;;;;;;;;;4.46;100.00;101136.25;5031054;28;19936;-77
2023/12/14 03:17:35;;;;;;;;;;;;;;;4.44;100.00;101133.63;5049075;28;20301;-76
2023/12/14 03:20:04;;;;;;;;;;;;;;;4.50;100.00;101135.47;5027779;28;19982;-77
2023/12/14 03:22:30;;;;;;;;;;;;;;;4.43;100.00;101141.41;5047342;28;19977;-76
2023/12/14 03:24:55;;;;;;;;;;;;;;;4.43;100.00;101138.81;5033844;28;20415;-77
2023/12/14 03:27:22;;;;;;;;;;;;;;;4.42;100.00;101147.41;5033756;28;19935;-77
2023/12/14 03:29:47;;;;;;;;;;;;;;;4.41;100.00;101149.16;5027097;28;19922;-76
2023/12/14 03:32:13;;;;;;;;;;;;;;;4.42;100.00;101160.41;5032290;28;19921;-78
2023/12/14 03:34:38;;;;;;;;;;;;;;;4.42;100.00;101155.22;5027656;28;19924;-77
2023/12/14 03:37:03;;;;;;;;;;;;;;;4.46;100.00;101144.91;5032847;28;20004;-78
2023/12/14 03:39:29;;;;;;;;;;;;;;;4.43;100.00;101142.25;5033736;28;19960;-77
2023/12/14 03:41:55;;;;;;;;;;;;;;;4.40;100.00;101152.59;5027622;28;19925;-77
2023/12/14 03:44:20;;;;;;;;;;;;;;;4.45;100.00;101160.44;5028214;28;19929;-78
2023/12/14 03:46:46;;;;;;;;;;;;;;;4.53;100.00;101161.47;5043662;28;19921;-79
2023/12/14 03:49:11;;;;;;;;;;;;;;;4.42;100.00;101170.78;5029013;28;19921;-77
2023/12/14 03:51:36;;;;;;;;;;;;;;;4.39;100.00;101174.19;5053536;28;19935;-79
2023/12/14 03:54:02;;;;;;;;;;;;;;;4.43;100.00;101178.59;5143477;22;20291;-78
2023/12/14 03:56:27;;;;;;;;;;;;;;;4.37;100.00;101183.66;5107268;27;20004;-77
2023/12/14 03:58:52;;;;;;;;;;;;;;;4.34;100.00;101186.22;5111745;27;19916;-77
2023/12/14 04:01:19;;;;;;;;;;;;;;;4.33;100.00;101187.03;5141679;22;20069;-76
2023/12/14 04:03:45;;;;;;;;;;;;;;;4.33;100.00;101182.72;5109206;27;20439;-75
2023/12/14 04:06:11;;;;;;;;;;;;;;;4.36;100.00;101197.47;5121374;27;19923;-76
2023/12/14 04:08:36;;;;;;;;;;;;;;;4.36;100.00;101194.03;5099697;28;19930;-76
2023/12/14 04:11:01;;;;;;;;;;;;;;;4.40;100.00;101193.25;5118849;27;19920;-76
2023/12/14 04:13:27;;;;;;;;;;;;;;;4.36;100.00;101196.63;5106019;28;20325;-76
2023/12/14 04:15:52;;;;;;;;;;;;;;;4.34;100.00;101194.84;5126416;22;19937;-75
2023/12/14 04:18:18;;;;;;;;;;;;;;;4.38;100.00;101194.91;5121572;27;19967;-77
2023/12/14 04:20:43;;;;;;;;;;;;;;;4.37;100.00;101191.44;5120759;22;19951;-76
2023/12/14 04:23:08;;;;;;;;;;;;;;;4.39;100.00;101197.53;5095811;28;19993;-76
2023/12/14 04:25:36;;;;;;;;;;;;;;;4.35;100.00;101190.53;5080546;28;19924;-76
2023/12/14 04:28:01;;;;;;;;;;;;;;;4.36;100.00;101200.06;5106649;28;20387;-76
2023/12/14 04:30:26;;;;;;;;;;;;;;;4.38;100.00;101205.28;5059092;28;19925;-76
2023/12/14 04:32:53;;;;;;;;;;;;;;;4.38;100.00;101205.28;5074474;28;19916;-77
2023/12/14 04:35:18;;;;;;;;;;;;;;;4.38;100.00;101211.34;5065237;28;19924;-76
2023/12/14 04:37:44;;;;;;;;;;;;;;;4.39;100.00;101222.63;5066079;28;19924;-75
2023/12/14 04:40:09;;;;;;;;;;;;;;;4.40;100.00;101220.06;5061398;28;19920;-76
2023/12/14 04:42:35;;;;;;;;;;;;;;;4.46;100.00;101240.91;5067823;28;19939;-76
2023/12/14 04:45:01;;;;;;;;;;;;;;;4.39;100.00;101249.44;5055670;28;19925;-76
2023/12/14 04:47:26;;;;;;;;;;;;;;;4.40;100.00;101256.38;5077025;28;19955;-76
2023/12/14 04:49:51;;;;;;;;;;;;;;;4.41;100.00;101262.44;5066278;28;19984;-76
2023/12/14 04:52:18;;;;;;;;;;;;;;;4.38;100.00;101265.84;5076400;28;19916;-75
2023/12/14 04:54:43;;;;;;;;;;;;;;;4.39;100.00;101265.00;5052830;28;19928;-76
2023/12/14 04:57:08;;;;;;;;;;;;;;;4.37;100.00;101269.28;5072342;28;19924;-75
2023/12/14 04:59:36;;;;;;;;;;;;;;;4.38;100.00;101272.75;5069589;28;19916;-76
2023/12/14 05:02:02;;;;;;;;;;;;;;;4.33;100.00;101280.44;5054449;28;20745;-76
2023/12/14 05:04:27;;;;;;;;;;;;;;;4.36;100.00;101290.03;5050781;28;20007;-76
2023/12/14 05:06:52;;;;;;;;;;;;;;;4.36;100.00;101293.47;5059650;28;19921;-76
2023/12/14 05:09:18;;;;;;;;;;;;;;;4.31;100.00;101290.81;5057044;28;20437;-76
2023/12/14 05:11:43;;;;;;;;;;;;;;;4.30;100.00;101293.38;5061666;28;19924;-77
2023/12/14 05:14:08;;;;;;;;;;;;;;;4.28;100.00;101297.63;5074005;28;19924;-76
2023/12/14 05:16:34;;;;;;;;;;;;;;;4.24;100.00;101296.69;5059601;28;19921;-77
2023/12/14 05:18:59;;;;;;;;;;;;;;;4.25;100.00;101302.75;5070103;28;20389;-76
2023/12/14 05:21:24;;;;;;;;;;;;;;;4.24;100.00;101314.88;5064619;28;20026;-76
2023/12/14 05:23:50;;;;;;;;;;;;;;;4.21;100.00;101322.59;5060828;28;20032;-76
2023/12/14 05:26:15;;;;;;;;;;;;;;;4.19;100.00;101324.25;5057479;28;19947;-76
2023/12/14 05:28:40;;;;;;;;;;;;;;;4.21;100.00;101334.66;5057566;28;19924;-77
2023/12/14 05:31:06;;;;;;;;;;;;;;;4.21;100.00;101337.25;5070807;28;20018;-76
2023/12/14 05:33:33;;;;;;;;;;;;;;;4.16;100.00;101345.81;5091518;28;19960;-76
2023/12/14 05:35:59;;;;;;;;;;;;;;;4.15;100.00;101349.25;5071012;28;19927;-76
2023/12/14 05:38:24;;;;;;;;;;;;;;;4.18;100.00;101348.47;5070861;28;19920;-77
2023/12/14 05:40:49;;;;;;;;;;;;;;;4.21;100.00;101355.41;5085548;28;20284;-77
2023/12/14 05:43:16;;;;;;;;;;;;;;;4.18;100.00;101368.31;5079578;28;19970;-77
2023/12/14 05:45:41;;;;;;;;;;;;;;;4.18;100.00;101373.50;5069350;28;20019;-77
2023/12/14 05:48:06;;;;;;;;;;;;;;;4.17;100.00;101377.81;5089072;28;19985;-75
2023/12/14 05:50:32;;;;;;;;;;;;;;;4.17;100.00;101385.59;5071953;28;20331;-77
2023/12/14 05:52:57;;;;;;;;;;;;;;;4.21;100.00;101389.13;5072055;28;20345;-77
2023/12/14 05:55:23;;;;;;;;;;;;;;;4.16;100.00;101397.69;5066557;28;19920;-77
2023/12/14 05:57:48;;;;;;;;;;;;;;;4.19;100.00;101401.22;5061021;28;19924;-76
2023/12/14 06:00:14;;;;;;;;;;;;;;;4.18;100.00;101415.00;5063137;28;19920;-76
2023/12/14 06:02:39;;;;;;;;;;;;;;;4.18;100.00;101418.50;5092675;28;19920;-77
2023/12/14 06:05:06;;;;;;;;;;;;;;;4.20;100.00;101423.72;5067052;28;19921;-76
2023/12/14 06:07:31;;;;;;;;;;;;;;;4.18;100.00;101425.38;5052524;28;19913;-77
2023/12/14 06:09:57;;;;;;;;;;;;;;;4.19;100.00;101427.16;5042861;28;19935;-77
2023/12/14 06:12:22;;;;;;;;;;;;;;;4.21;100.00;101428.03;5057477;28;19943;-76
2023/12/14 06:14:47;;;;;;;;;;;;;;;4.20;100.00;101427.19;5061144;28;20292;-76
2023/12/14 06:17:12;;;;;;;;;;;;;;;4.21;100.00;101430.63;5062934;28;20395;-76
2023/12/14 06:19:38;;;;;;;;;;;;;;;4.20;100.00;101432.38;5069007;28;19926;-76
2023/12/14 06:22:03;;;;;;;;;;;;;;;4.20;100.00;101437.56;5075424;28;19920;-77
2023/12/14 06:24:28;;;;;;;;;;;;;;;4.21;100.00;101433.25;5087928;28;19923;-77
2023/12/14 06:26:54;;;;;;;;;;;;;;;4.23;100.00;101441.94;5071558;28;20401;-77
2023/12/14 06:29:20;;;;;;;;;;;;;;;4.23;100.00;101439.34;5087113;28;19920;-77
2023/12/14 06:31:46;;;;;;;;;;;;;;;4.25;100.00;101448.94;5058534;28;19981;-76
2023/12/14 06:34:11;;;;;;;;;;;;;;;4.26;100.00;101452.41;5059884;28;20407;-76
2023/12/14 06:36:41;;;;;;;;;;;;;;;4.28;100.00;101455.88;5055061;28;19975;-77
2023/12/14 06:39:07;;;;;;;;;;;;;;;4.28;100.00;101467.16;5076133;28;19916;-77
2023/12/14 06:41:32;;;;;;;;;;;;;;;4.28;100.00;101477.53;5058395;28;19920;-77
2023/12/14 06:43:58;;;;;;;;;;;;;;;4.30;100.00;101480.19;5055682;28;19916;-77
2023/12/14 06:46:23;;;;;;;;;;;;;;;4.25;100.00;101480.06;5055673;28;19921;-77
2023/12/14 06:48:48;;;;;;;;;;;;;;;4.25;100.00;101489.53;5072876;28;19924;-77
2023/12/14 06:51:14;;;;;;;;;;;;;;;4.23;100.00;101486.91;5064599;28;19963;-76
2023/12/14 06:53:40;;;;;;;;;;;;;;;4.23;100.00;101479.13;5077919;28;19965;-77
2023/12/14 06:56:09;;;;;;;;;;;;;;;4.23;100.00;101486.06;5057470;28;19920;-76
2023/12/14 06:58:35;;;;;;;;;;;;;;;4.23;100.00;101483.47;5071991;28;19955;-76
2023/12/14 07:01:00;;;;;;;;;;;;;;;4.23;100.00;101492.09;5071784;28;20015;-77
2023/12/14 07:03:26;;;;;;;;;;;;;;;4.22;100.00;101502.44;5071484;28;19920;-76
2023/12/14 07:05:52;;;;;;;;;;;;;;;4.20;100.00;101501.53;5055313;28;19939;-76
2023/12/14 07:08:18;;;;;;;;;;;;;;;4.20;100.00;101507.59;5071574;28;20378;-76
2023/12/14 07:10:43;;;;;;;;;;;;;;;4.19;100.00;101510.16;5046512;28;19935;-77
2023/12/14 07:13:10;;;;;;;;;;;;;;;4.15;100.00;101517.88;5053006;28;19921;-77
2023/12/14 07:15:35;;;;;;;;;;;;;;;4.16;100.00;101529.97;5051541;28;19932;-77
2023/12/14 07:18:00;;;;;;;;;;;;;;;4.15;100.00;101535.13;5051808;28;19924;-77
2023/12/14 07:20:25;;;;;;;;;;;;;;;4.15;100.00;101536.03;5072723;28;20043;-77
2023/12/14 07:22:51;;;;;;;;;;;;;;;4.15;100.00;101538.63;5054556;28;20356;-76
2023/12/14 07:25:16;;;;;;;;;;;;;;;4.13;100.00;101537.69;5051980;28;20386;-77
2023/12/14 07:27:42;;;;;;;;;;;;;;;4.12;100.00;101546.31;5068555;28;19920;-77
2023/12/14 07:30:09;;;;;;;;;;;;;;;4.14;100.00;101552.41;5051567;28;19917;-77
2023/12/14 07:32:34;;;;;;;;;;;;;;;4.19;100.00;101562.91;5043486;28;19921;-77
2023/12/14 07:35:02;;;;;;;;;;;;;;;4.20;100.00;101580.25;5054160;28;19928;-77
2023/12/14 07:37:27;;;;;;;;;;;;;;;4.21;100.00;101588.88;5054597;28;19923;-77
2023/12/14 07:39:52;;;;;;;;;;;;;;;4.12;100.00;101585.25;5071207;28;19921;-77
2023/12/14 07:42:20;;;;;;;;;;;;;;;4.16;100.00;101583.59;5054106;28;19916;-76
2023/12/14 07:44:50;;;;;;;;;;;;;;;4.11;100.00;101588.66;5052695;28;19932;-76
2023/12/14 07:47:18;;;;;;;;;;;;;;;4.09;100.00;101587.72;5051082;28;19917;-76
2023/12/14 07:49:44;;;;;;;;;;;;;;;4.09;100.00;101587.72;5036119;28;19932;-76
2023/12/14 07:52:13;;;;;;;;;;;;;;;4.08;100.00;101595.47;5053506;28;19920;-77
2023/12/14 07:54:39;;;;;;;;;;;;;;;4.10;100.00;101599.88;5054624;28;19916;-77
2023/12/14 07:57:05;;;;;;;;;;;;;;;4.11;100.00;101600.75;5053910;28;19916;-77
2023/12/14 07:59:30;;;;;;;;;;;;;;;4.12;100.00;101602.50;5053854;28;20309;-78
2023/12/14 08:01:56;;;;;;;;;;;;;;;4.07;100.00;101610.16;5054239;28;19921;-77
2023/12/14 08:04:22;;;;;;;;;;;;;;;4.07;100.00;101615.34;5071016;28;20011;-77
2023/12/14 08:06:47;;;;;;;;;;;;;;;4.11;100.00;101626.69;5054029;28;20011;-77
2023/12/14 08:09:12;;;;;;;;;;;;;;;4.16;100.00;101625.97;5054087;28;19917;-76
2023/12/14 08:11:38;;;;;;;;;;;;;;;4.13;100.00;101631.06;5069771;28;20008;-77
2023/12/14 08:14:03;;;;;;;;;;;;;;;4.12;100.00;101629.34;5053491;28;19946;-77
2023/12/14 08:16:28;;;;;;;;;;;;;;;4.12;100.00;101629.34;5054179;28;20366;-78
2023/12/14 08:18:54;;;;;;;;;;;;;;;4.20;100.00;101633.84;5056684;28;19928;-78
2023/12/14 08:21:19;;;;;;;;;;;;;;;4.13;100.00;101641.44;5036950;28;19932;-77
2023/12/14 08:23:44;;;;;;;;;;;;;;;4.11;100.00;101642.25;5054015;28;20019;-77
2023/12/14 08:26:12;;;;;;;;;;;;;;;4.09;100.00;101654.28;5070442;28;19926;-77
2023/12/14 08:28:38;;;;;;;;;;;;;;;4.07;100.00;101658.56;5070258;28;19916;-76
2023/12/14 08:31:04;;;;;;;;;;;;;;;4.08;100.00;101658.63;5046883;28;20074;-77
2023/12/14 08:33:29;;;;;;;;;;;;;;;4.14;100.00;101652.72;5066167;28;19920;-76
2023/12/14 08:35:55;;;;;;;;;;;;;;;4.10;100.00;101662.13;5053889;28;19921;-78
2023/12/14 08:38:20;;;;;;;;;;;;;;;4.09;100.00;101667.25;5070587;28;20007;-76
2023/12/14 08:40:45;;;;;;;;;;;;;;;4.16;100.00;101674.38;5053242;28;20442;-77
2023/12/14 08:43:12;;;;;;;;;;;;;;;4.10;100.00;101675.09;5049371;28;20289;-77
2023/12/14 08:45:37;;;;;;;;;;;;;;;4.08;100.00;101681.06;5064496;28;19951;-76
2023/12/14 08:48:03;;;;;;;;;;;;;;;4.07;100.00;101685.38;5054235;28;20310;-78
2023/12/14 08:50:28;;;;;;;;;;;;;;;4.05;100.00;101688.75;5072547;28;20057;-76
2023/12/14 08:52:53;;;;;;;;;;;;;;;4.05;100.00;101692.25;5056923;28;20396;-76
2023/12/14 08:55:19;;;;;;;;;;;;;;;4.03;100.00;101698.22;5054468;28;20290;-77
2023/12/14 08:57:44;;;;;;;;;;;;;;;4.03;100.00;101712.06;5048961;28;19939;-77
2023/12/14 09:00:10;;;;;;;;;;;;;;;4.05;100.00;101712.09;5057459;28;20313;-76
2023/12/14 09:02:35;;;;;;;;;;;;;;;4.06;100.00;101719.94;5056424;28;19930;-77
2023/12/14 09:05:00;;;;;;;;;;;;;;;4.06;100.00;101722.53;5074283;28;19913;-76
2023/12/14 09:07:26;;;;;;;;;;;;;;;3.99;100.00;101708.50;5056577;28;19924;-77
2023/12/14 09:09:51;;;;;;;;;;;;;;;3.99;100.00;101711.13;5057380;28;19920;-77
2023/12/14 09:12:16;;;;;;;;;;;;;;;3.98;100.00;101718.84;5056948;28;20271;-77
2023/12/14 09:14:42;;;;;;;;;;;;;;;4.00;100.00;101717.16;5056427;28;20420;-79
2023/12/14 09:17:07;;;;;;;;;;;;;;;4.03;100.00;101732.81;5054034;28;19947;-76
2023/12/14 09:19:32;;;;;;;;;;;;;;;4.01;100.00;101739.69;5048053;28;19920;-77
2023/12/14 09:21:59;;;;;;;;;;;;;;;4.00;100.00;101753.47;5053515;28;19925;-76
2023/12/14 09:24:24;;;;;;;;;;;;;;;4.00;100.00;101750.88;5054792;28;19966;-76
2023/12/14 09:26:50;;;;;;;;;;;;;;;3.99;100.00;101759.47;5073262;28;19924;-76
2023/12/14 09:29:16;;;;;;;;;;;;;;;4.09;100.00;101771.03;5056572;28;20336;-77
2023/12/14 09:31:45;;;;;;;;;;;;;;;4.02;100.00;101771.66;5073883;28;19916;-77
2023/12/14 09:34:11;;;;;;;;;;;;;;;3.99;100.00;101772.47;5073464;28;19943;-77
2023/12/14 09:36:36;;;;;;;;;;;;;;;3.97;100.00;101781.91;5056239;28;20381;-77
2023/12/14 09:39:02;;;;;;;;;;;;;;;3.99;100.00;101782.81;5073477;28;20004;-78
2023/12/14 09:41:28;;;;;;;;;;;;;;;3.96;100.00;101791.38;5056661;28;20026;-77
2023/12/14 09:43:53;;;;;;;;;;;;;;;3.96;100.00;101787.94;5073391;28;19991;-77
2023/12/14 09:46:20;;;;;;;;;;;;;;;3.98;100.00;101786.28;5056442;28;20015;-76
2023/12/14 09:48:46;;;;;;;;;;;;;;;3.99;100.00;101788.00;5073002;28;19962;-77
2023/12/14 09:51:12;;;;;;;;;;;;;;;4.00;100.00;101800.16;5056335;28;20293;-78
2023/12/14 09:53:38;;;;;;;;;;;;;;;4.01;100.00;101796.75;5073100;28;19979;-77
2023/12/14 09:56:04;;;;;;;;;;;;;;;4.01;100.00;101804.53;5068971;28;19943;-76
2023/12/14 09:58:33;;;;;;;;;;;;;;;3.98;100.00;101812.22;5070896;28;20289;-77
2023/12/14 10:01:00;;;;;;;;;;;;;;;3.97;100.00;101820.81;5072615;28;20006;-76
2023/12/14 10:03:28;;;;;;;;;;;;;;;4.02;100.00;101824.41;5073297;28;19920;-77
2023/12/14 10:05:55;;;;;;;;;;;;;;;3.99;100.00;101830.41;5073091;28;19935;-77
2023/12/14 10:08:21;;;;;;;;;;;;;;;4.01;100.00;101837.34;5072707;28;20385;-77
2023/12/14 10:10:49;;;;;;;;;;;;;;;4.08;100.00;101834.09;5056279;28;19920;-78
2023/12/14 10:13:14;;;;;;;;;;;;;;;4.07;100.00;101848.78;5072000;28;19922;-78
2023/12/14 10:15:43;;;;;;;;;;;;;;;4.12;100.00;101849.84;5073272;28;19920;-78
2023/12/14 10:18:09;;;;;;;;;;;;;;;4.10;100.00;101848.03;5073054;28;20370;-77
2023/12/14 10:20:34;;;;;;;;;;;;;;;4.17;100.00;101849.97;5055860;28;19978;-78
2023/12/14 10:23:00;;;;;;;;;;;;;;;4.11;100.00;101860.16;5072117;28;19924;-78
2023/12/14 10:25:26;;;;;;;;;;;;;;;4.22;100.00;101857.88;5056301;28;19924;-78
2023/12/14 10:27:54;;;;;;;;;;;;;;;4.16;100.00;101859.44;5071670;28;20113;-77
2023/12/14 10:30:19;;;;;;;;;;;;;;;4.10;100.00;101874.81;5072904;28;19912;-77
2023/12/14 10:32:48;;;;;;;;;;;;;;;4.09;100.00;101870.47;5051831;28;20286;-77
2023/12/14 10:35:15;;;;;;;;;;;;;;;4.07;100.00;101869.53;5064689;28;20425;-78
2023/12/14 10:37:42;;;;;;;;;;;;;;;4.09;100.00;101872.19;5072108;28;20374;-77
2023/12/14 10:40:10;;;;;;;;;;;;;;;4.10;100.00;101876.56;5072548;28;19979;-77
2023/12/14 10:42:36;;;;;;;;;;;;;;;4.12;100.00;101875.78;5071556;28;20357;-77
2023/12/14 10:45:02;;;;;;;;;;;;;;;4.18;100.00;101869.00;5072352;28;20205;-78
2023/12/14 10:47:27;;;;;;;;;;;;;;;4.22;100.00;101874.31;5052229;28;19924;-77
2023/12/14 10:49:54;;;;;;;;;;;;;;;4.25;100.00;101873.53;5048063;28;19921;-77
2023/12/14 10:52:20;;;;;;;;;;;;;;;4.27;100.00;101864.09;5054708;28;19951;-77
2023/12/14 10:54:46;;;;;;;;;;;;;;;4.33;100.00;101875.53;5072192;28;19923;-77
2023/12/14 10:57:12;;;;;;;;;;;;;;;4.42;100.00;101866.28;5054956;28;19916;-77
2023/12/14 10:59:37;;;;;;;;;;;;;;;4.47;100.00;101873.38;5050675;28;19921;-77
2023/12/14 11:02:09;;;;;;;;;;;;;;;4.54;100.00;101876.13;5077105;28;20022;-77
2023/12/14 11:04:54;;;;;;;;;;;;;;;4.56;100.00;101882.28;5070004;28;20373;-77
2023/12/14 11:07:39;;;;;;;;;;;;;;;4.51;100.00;101882.09;5071109;28;20504;-78
2023/12/14 11:10:05;;;;;;;;;;;;;;;4.49;100.00;101891.56;5065611;28;19917;-79
2023/12/14 11:12:30;;;;;;;;;;;;;;;4.48;100.00;101887.22;5033863;28;19925;-78
2023/12/14 11:14:56;;;;;;;;;;;;;;;4.45;100.00;101898.41;5060459;28;19939;-78
2023/12/14 11:17:21;;;;;;;;;;;;;;;4.41;100.00;101900.84;5055238;28;19920;-78
2023/12/14 11:19:47;;;;;;;;;;;;;;;4.39;100.00;101907.72;5051623;28;20378;-77
2023/12/14 11:22:22;;;;;;;;;;;;;;;4.33;100.00;101906.69;5049059;28;19931;-78
2023/12/14 11:24:51;;;;;;;;;;;;;;;4.29;100.00;101903.94;5071581;28;20267;-78
2023/12/14 11:27:19;;;;;;;;;;;;;;;4.29;100.00;101911.72;5071394;28;19920;-78
2023/12/14 11:29:50;;;;;;;;;;;;;;;4.30;100.00;101924.75;5070908;28;19917;-77
2023/12/14 11:32:16;;;;;;;;;;;;;;;4.33;100.00;101921.38;5071640;28;19916;-77
2023/12/14 11:34:41;;;;;;;;;;;;;;;4.38;100.00;101932.75;5071534;28;20027;-77
2023/12/14 11:37:07;;;;;;;;;;;;;;;4.39;100.00;101929.34;5070992;28;20383;-77
2023/12/14 11:39:32;;;;;;;;;;;;;;;4.39;100.00;101939.72;5054696;28;19924;-78
2023/12/14 11:42:08;;;;;;;;;;;;;;;4.45;100.00;101937.34;5071056;28;19916;-78
2023/12/14 11:44:33;;;;;;;;;;;;;;;4.47;100.00;101939.97;5070543;28;20294;-77
2023/12/14 11:46:59;;;;;;;;;;;;;;;4.47;100.00;101938.25;5054868;28;19917;-78
2023/12/14 11:49:26;;;;;;;;;;;;;;;4.50;100.00;101935.75;5053068;28;19920;-78
2023/12/14 11:51:53;;;;;;;;;;;;;;;4.56;100.00;101932.47;5053649;28;19970;-78
2023/12/14 11:54:21;;;;;;;;;;;;;;;4.59;100.00;101927.38;5070967;28;19913;-77
2023/12/14 11:56:47;;;;;;;;;;;;;;;4.69;100.00;101925.94;5053968;28;20018;-77
2023/12/14 11:59:14;;;;;;;;;;;;;;;4.86;100.00;101922.09;5070300;28;19962;-77
2023/12/14 12:01:39;;;;;;;;;;;;;;;4.99;100.00;101925.94;5071038;28;19913;-77
2023/12/14 12:04:11;;;;;;;;;;;;;;;5.26;100.00;101926.66;5070539;28;19920;-77
2023/12/14 12:06:36;;;;;;;;;;;;;;;5.62;100.00;101931.13;5070680;28;19912;-76
2023/12/14 12:09:07;;;;;;;;;;;;;;;5.83;100.00;101930.75;5053609;28;20068;-76
2023/12/14 12:11:35;;;;;;;;;;;;;;;5.98;100.00;101938.13;5054235;28;19924;-77
2023/12/14 12:14:01;;;;;;;;;;;;;;;6.11;100.00;101942.78;5070360;28;20392;-77
2023/12/14 12:16:26;;;;;;;;;;;;;;;6.14;100.00;101936.78;5054245;28;19917;-76
2023/12/14 12:18:52;;;;;;;;;;;;;;;6.19;100.00;101937.75;5054235;28;19924;-76
2023/12/14 12:21:18;;;;;;;;;;;;;;;6.22;100.00;101923.09;5052820;28;19924;-76
2023/12/14 12:23:43;;;;;;;;;;;;;;;6.42;100.00;101927.88;5053959;28;19951;-77
2023/12/14 12:26:09;;;;;;;;;;;;;;;6.55;100.00;101929.03;5053441;28;20263;-77
2023/12/14 12:28:34;;;;;;;;;;;;;;;6.45;100.00;101932.28;5069974;28;20424;-77